createdAt,value
2022-12-18T00:00:14.519Z,22.29
2022-12-18T00:01:13.522Z,20.79
2022-12-18T00:02:13.772Z,19.79
2022-12-18T00:03:27.850Z,20.5
2022-12-18T00:04:13.702Z,21.5
2022-12-18T00:05:13.777Z,18.70
2022-12-18T00:06:13.754Z,19.39
2022-12-18T00:07:13.878Z,20.60
2022-12-18T00:08:13.674Z,19.29
2022-12-18T00:09:13.807Z,18.70
2022-12-18T00:10:15.504Z,19.70
2022-12-18T00:11:13.717Z,20.70
2022-12-18T00:13:13.642Z,21.10
2022-12-18T00:14:13.322Z,20.79
2022-12-18T00:15:13.836Z,21.20
2022-12-18T00:16:13.467Z,21.70
2022-12-18T00:17:14.573Z,22
2022-12-18T00:18:16.101Z,21.39
2022-12-18T00:19:13.567Z,21.20
2022-12-18T00:20:14.437Z,19.89
2022-12-18T00:21:14.263Z,19.60
2022-12-18T00:22:13.845Z,21.60
2022-12-18T00:23:13.629Z,21.29
2022-12-18T00:24:13.506Z,20.79
2022-12-18T00:25:13.420Z,20.29
2022-12-18T00:26:13.877Z,19.89
2022-12-18T00:27:13.677Z,22.60
2022-12-18T00:28:14.203Z,17.20
2022-12-18T00:29:13.766Z,19.70
2022-12-18T00:30:13.673Z,20
2022-12-18T00:31:14.200Z,20.89
2022-12-18T00:32:13.871Z,17.60
2022-12-18T00:33:14.344Z,19.60
2022-12-18T00:34:13.809Z,17.89
2022-12-18T00:35:13.536Z,19
2022-12-18T00:36:14.211Z,20.60
2022-12-18T00:37:19.737Z,17.10
2022-12-18T00:38:13.860Z,18.60
2022-12-18T00:39:13.789Z,18
2022-12-18T00:40:13.953Z,18.70
2022-12-18T00:41:13.639Z,18.89
2022-12-18T00:42:13.802Z,19.89
2022-12-18T00:43:13.351Z,21
2022-12-18T00:45:14.326Z,20
2022-12-18T00:46:14.306Z,20.60
2022-12-18T00:47:13.767Z,19.10
2022-12-18T00:48:13.710Z,18.70
2022-12-18T00:49:13.485Z,19.60
2022-12-18T00:50:13.342Z,19.5
2022-12-18T00:51:13.777Z,17.89
2022-12-18T00:52:13.480Z,18.39
2022-12-18T00:53:14.186Z,20
2022-12-18T00:54:13.812Z,21
2022-12-18T00:55:13.735Z,19.60
2022-12-18T00:56:13.694Z,20.5
2022-12-18T00:57:13.894Z,20.29
2022-12-18T00:58:13.697Z,20.70
2022-12-18T00:59:13.315Z,18.89
2022-12-18T01:00:14.840Z,18.60
2022-12-18T01:01:15.789Z,21.20
2022-12-18T01:02:14.528Z,20.79
2022-12-18T01:03:13.577Z,19
2022-12-18T01:04:14.298Z,18.79
2022-12-18T01:05:14.230Z,18.39
2022-12-18T01:06:13.852Z,19
2022-12-18T01:07:13.300Z,19.20
2022-12-18T01:08:13.748Z,20.39
2022-12-18T01:09:14.166Z,19.20
2022-12-18T01:10:13.561Z,20
2022-12-18T01:11:14.112Z,18.60
2022-12-18T01:12:13.522Z,19.39
2022-12-18T01:13:13.694Z,18.89
2022-12-18T01:14:13.104Z,20.5
2022-12-18T01:15:13.695Z,19.60
2022-12-18T01:16:13.969Z,20.5
2022-12-18T01:17:13.604Z,21.20
2022-12-18T01:18:14.026Z,19.20
2022-12-18T01:19:13.454Z,20.20
2022-12-18T01:20:13.947Z,19.5
2022-12-18T01:21:13.799Z,19.29
2022-12-18T01:22:13.248Z,18.39
2022-12-18T01:23:13.662Z,19.29
2022-12-18T01:24:14.050Z,19.39
2022-12-18T01:25:13.372Z,21
2022-12-18T01:27:13.688Z,19.70
2022-12-18T01:28:13.754Z,19.5
2022-12-18T01:29:13.892Z,18.89
2022-12-18T01:30:14.091Z,21.10
2022-12-18T01:31:13.533Z,20.79
2022-12-18T01:32:13.664Z,21.20
2022-12-18T01:33:13.386Z,18.89
2022-12-18T01:34:13.157Z,19.5
2022-12-18T01:35:13.639Z,19.20
2022-12-18T01:36:13.904Z,18.5
2022-12-18T01:37:13.234Z,19.39
2022-12-18T01:38:13.000Z,19.70
2022-12-18T01:39:13.977Z,19.29
2022-12-18T01:40:13.899Z,17.39
2022-12-18T01:41:12.932Z,18.79
2022-12-18T01:42:14.073Z,19.60
2022-12-18T01:43:13.252Z,18.29
2022-12-18T01:44:13.748Z,17.79
2022-12-18T01:45:13.414Z,18.20
2022-12-18T01:46:13.311Z,18.70
2022-12-18T01:47:13.801Z,18.79
2022-12-18T01:48:13.856Z,18.70
2022-12-18T01:49:13.766Z,17.20
2022-12-18T01:50:13.162Z,16.70
2022-12-18T01:51:13.519Z,18.20
2022-12-18T01:52:13.697Z,16.79
2022-12-18T01:53:13.977Z,17.10
2022-12-18T01:54:14.076Z,16.70
2022-12-18T01:55:13.402Z,15.80
2022-12-18T01:56:13.238Z,18.10
2022-12-18T01:57:13.405Z,17.20
2022-12-18T01:59:13.945Z,16.5
2022-12-18T02:00:14.780Z,17
2022-12-18T02:01:14.259Z,17.70
2022-12-18T02:02:14.162Z,17.20
2022-12-18T02:03:13.774Z,16.39
2022-12-18T02:04:13.270Z,17
2022-12-18T02:05:13.741Z,17.5
2022-12-18T02:06:13.852Z,16.5
2022-12-18T02:07:13.108Z,18.60
2022-12-18T02:08:13.154Z,16.39
2022-12-18T02:09:13.465Z,16.79
2022-12-18T02:10:13.828Z,17.89
2022-12-18T02:11:13.934Z,19.10
2022-12-18T02:12:18.057Z,17.89
2022-12-18T02:13:13.011Z,17.10
2022-12-18T02:14:13.041Z,16.70
2022-12-18T02:15:13.141Z,17.5
2022-12-18T02:16:13.230Z,17.70
2022-12-18T02:17:13.596Z,16.5
2022-12-18T02:19:13.884Z,15.80
2022-12-18T02:20:13.252Z,17
2022-12-18T02:21:13.314Z,15.30
2022-12-18T02:22:13.789Z,16.89
2022-12-18T02:23:13.985Z,16.20
2022-12-18T02:24:13.329Z,15.89
2022-12-18T02:25:14.040Z,16.89
2022-12-18T02:26:13.353Z,17.29
2022-12-18T02:27:13.623Z,15.80
2022-12-18T02:28:14.133Z,16.10
2022-12-18T02:29:13.393Z,16.79
2022-12-18T02:30:13.815Z,15.30
2022-12-18T02:31:13.418Z,15.10
2022-12-18T02:32:13.568Z,15
2022-12-18T02:33:13.754Z,15.39
2022-12-18T02:34:13.824Z,16
2022-12-18T02:35:14.071Z,15.5
2022-12-18T02:36:13.118Z,14.80
2022-12-18T02:37:13.320Z,15.30
2022-12-18T02:38:13.386Z,15.5
2022-12-18T02:39:13.624Z,15.19
2022-12-18T02:40:13.687Z,15.10
2022-12-18T02:41:13.311Z,14.60
2022-12-18T02:42:13.684Z,15.60
2022-12-18T02:43:14.137Z,15.30
2022-12-18T02:44:13.875Z,16.20
2022-12-18T02:45:13.487Z,14.39
2022-12-18T02:46:14.011Z,15.69
2022-12-18T02:47:13.534Z,15.10
2022-12-18T02:48:13.699Z,15.19
2022-12-18T02:49:13.724Z,14.5
2022-12-18T02:50:13.956Z,14.69
2022-12-18T02:52:13.375Z,15.30
2022-12-18T02:53:13.623Z,14.80
2022-12-18T02:54:13.964Z,14.39
2022-12-18T02:55:13.243Z,15.5
2022-12-18T02:56:13.440Z,16.60
2022-12-18T02:57:13.533Z,14.80
2022-12-18T02:58:13.744Z,14.69
2022-12-18T02:59:13.105Z,15.60
2022-12-18T03:00:14.123Z,15.69
2022-12-18T03:01:13.903Z,15.10
2022-12-18T03:02:13.617Z,15.39
2022-12-18T03:03:13.291Z,17.29
2022-12-18T03:04:13.816Z,15.60
2022-12-18T03:05:14.119Z,14.89
2022-12-18T03:06:13.207Z,16.60
2022-12-18T03:07:13.295Z,15.5
2022-12-18T03:08:13.323Z,16.5
2022-12-18T03:09:13.884Z,14.10
2022-12-18T03:10:13.850Z,15
2022-12-18T03:11:14.080Z,14.89
2022-12-18T03:12:13.290Z,14
2022-12-18T03:13:13.419Z,13.80
2022-12-18T03:14:13.585Z,15.30
2022-12-18T03:15:17.587Z,13
2022-12-18T03:16:13.121Z,14.89
2022-12-18T03:17:13.535Z,14.80
2022-12-18T03:18:13.510Z,14.5
2022-12-18T03:19:13.641Z,15
2022-12-18T03:20:13.951Z,15.60
2022-12-18T03:21:13.079Z,17.70
2022-12-18T03:22:13.396Z,14.60
2022-12-18T03:23:13.575Z,15
2022-12-18T03:24:13.495Z,14.69
2022-12-18T03:25:14.027Z,14.10
2022-12-18T03:26:13.367Z,15.60
2022-12-18T03:27:13.718Z,14.69
2022-12-18T03:28:13.646Z,15.10
2022-12-18T03:29:14.076Z,14.89
2022-12-18T03:30:13.433Z,13.80
2022-12-18T03:31:13.594Z,15.19
2022-12-18T03:32:13.552Z,15.30
2022-12-18T03:33:13.864Z,14.80
2022-12-18T03:34:14.068Z,14.89
2022-12-18T03:35:13.504Z,17.29
2022-12-18T03:36:13.348Z,15.69
2022-12-18T03:37:13.406Z,14.60
2022-12-18T03:38:13.656Z,15.69
2022-12-18T03:39:13.741Z,17
2022-12-18T03:40:13.866Z,16.70
2022-12-18T03:41:13.245Z,17.29
2022-12-18T03:42:13.333Z,16.29
2022-12-18T03:43:13.623Z,15.39
2022-12-18T03:44:13.755Z,15.60
2022-12-18T03:45:14.422Z,16.5
2022-12-18T03:46:13.991Z,16.10
2022-12-18T03:47:13.597Z,16.20
2022-12-18T03:48:13.727Z,15.69
2022-12-18T03:49:13.917Z,14.80
2022-12-18T03:50:14.023Z,15
2022-12-18T03:51:13.023Z,14.19
2022-12-18T03:53:13.329Z,16.10
2022-12-18T03:54:13.398Z,16.60
2022-12-18T03:55:13.317Z,15.80
2022-12-18T03:57:13.352Z,15.60
2022-12-18T03:58:13.402Z,15.80
2022-12-18T03:59:13.494Z,15.60
2022-12-18T04:00:14.219Z,14.80
2022-12-18T04:01:13.612Z,14.30
2022-12-18T04:02:13.865Z,15.39
2022-12-18T04:03:13.380Z,14.69
2022-12-18T04:04:13.824Z,15.89
2022-12-18T04:05:14.191Z,15.39
2022-12-18T04:06:13.224Z,15.19
2022-12-18T04:07:13.555Z,15
2022-12-18T04:08:13.496Z,13.69
2022-12-18T04:09:13.560Z,15.30
2022-12-18T04:10:13.899Z,16
2022-12-18T04:11:13.720Z,15.60
2022-12-18T04:12:13.771Z,16.10
2022-12-18T04:13:13.287Z,14.89
2022-12-18T04:14:17.575Z,17.70
2022-12-18T04:15:14.141Z,14.69
2022-12-18T04:16:13.365Z,16.79
2022-12-18T04:17:13.441Z,15.60
2022-12-18T04:18:13.465Z,16.79
2022-12-18T04:19:13.564Z,16.5
2022-12-18T04:20:13.813Z,16.20
2022-12-18T04:21:14.365Z,16.70
2022-12-18T04:22:13.483Z,16.29
2022-12-18T04:23:13.483Z,16.10
2022-12-18T04:24:13.847Z,18.5
2022-12-18T04:25:14.181Z,16.60
2022-12-18T04:26:13.271Z,16.20
2022-12-18T04:27:13.584Z,17.20
2022-12-18T04:28:13.668Z,17
2022-12-18T04:29:13.020Z,16.60
2022-12-18T04:30:13.554Z,17.5
2022-12-18T04:31:14.047Z,17.20
2022-12-18T04:32:13.286Z,19
2022-12-18T04:33:13.696Z,16
2022-12-18T04:34:13.663Z,16.79
2022-12-18T04:35:14.079Z,18
2022-12-18T04:36:13.153Z,18.20
2022-12-18T04:37:13.348Z,18.10
2022-12-18T04:38:13.566Z,17.5
2022-12-18T04:39:13.967Z,16.79
2022-12-18T04:40:13.058Z,17.60
2022-12-18T04:41:13.247Z,16.70
2022-12-18T04:42:13.102Z,17.29
2022-12-18T04:43:21.587Z,18.20
2022-12-18T04:44:13.760Z,19.10
2022-12-18T04:47:22.001Z,17
2022-12-18T04:48:13.743Z,17.89
2022-12-18T04:49:13.801Z,17.5
2022-12-18T04:50:12.963Z,20
2022-12-18T04:51:13.093Z,17.5
2022-12-18T04:52:13.601Z,18.79
2022-12-18T04:53:13.754Z,19.29
2022-12-18T04:54:13.469Z,18.79
2022-12-18T04:55:13.747Z,18.89
2022-12-18T04:56:13.026Z,20.70
2022-12-18T04:57:13.191Z,21.89
2022-12-18T04:58:12.661Z,21.29
2022-12-18T04:59:13.792Z,21.39
2022-12-18T05:00:14.511Z,19.29
2022-12-18T05:01:14.128Z,20.89
2022-12-18T05:02:13.844Z,20.10
2022-12-18T05:03:13.750Z,21.60
2022-12-18T05:04:13.916Z,22.29
2022-12-18T05:05:13.422Z,22
2022-12-18T05:06:13.634Z,20.29
2022-12-18T05:07:12.992Z,21.79
2022-12-18T05:08:13.637Z,21.10
2022-12-18T05:09:14.093Z,20.60
2022-12-18T05:10:13.311Z,21.89
2022-12-18T05:11:13.436Z,22
2022-12-18T05:12:13.579Z,20.70
2022-12-18T05:13:13.738Z,20
2022-12-18T05:14:13.758Z,22.20
2022-12-18T05:15:14.120Z,23.60
2022-12-18T05:16:13.581Z,20.70
2022-12-18T05:17:14.146Z,21.89
2022-12-18T05:18:13.251Z,20.29
2022-12-18T05:19:13.462Z,21.5
2022-12-18T05:20:14.033Z,23.20
2022-12-18T05:21:13.583Z,22.60
2022-12-18T05:22:13.942Z,22
2022-12-18T05:24:13.753Z,19.39
2022-12-18T05:25:14.185Z,20.70
2022-12-18T05:26:13.415Z,19
2022-12-18T05:27:13.406Z,20.20
2022-12-18T05:28:13.550Z,23.79
2022-12-18T05:29:13.624Z,19.79
2022-12-18T05:30:13.875Z,19
2022-12-18T05:31:13.327Z,20
2022-12-18T05:32:13.635Z,20.60
2022-12-18T05:33:13.999Z,19.70
2022-12-18T05:34:13.318Z,20.89
2022-12-18T05:36:13.204Z,21.29
2022-12-18T05:37:13.824Z,20.60
2022-12-18T05:38:13.110Z,22.10
2022-12-18T05:39:13.205Z,20.70
2022-12-18T05:40:13.497Z,21.5
2022-12-18T05:41:13.931Z,19.60
2022-12-18T05:42:13.158Z,20.79
2022-12-18T05:43:17.944Z,21.70
2022-12-18T05:44:14.496Z,21.5
2022-12-18T05:45:14.137Z,21.70
2022-12-18T05:46:11.934Z,22.39
2022-12-18T05:47:13.908Z,20.79
2022-12-18T05:48:13.016Z,22.79
2022-12-18T05:49:13.224Z,23
2022-12-18T05:50:13.598Z,22.70
2022-12-18T05:51:14.082Z,19.39
2022-12-18T05:52:13.625Z,20.79
2022-12-18T05:53:14.098Z,20.29
2022-12-18T05:54:13.331Z,19.60
2022-12-18T05:55:14.112Z,19.79
2022-12-18T05:56:13.456Z,19.70
2022-12-18T05:57:13.960Z,18.79
2022-12-18T05:58:13.853Z,19.5
2022-12-18T05:59:13.131Z,18.60
2022-12-18T06:00:14.321Z,19.10
2022-12-18T06:01:14.336Z,18.89
2022-12-18T06:02:14.341Z,17.70
2022-12-18T06:03:13.847Z,17.60
2022-12-18T06:04:13.768Z,18.29
2022-12-18T06:05:13.338Z,17.89
2022-12-18T06:06:13.752Z,17
2022-12-18T06:07:13.947Z,17.79
2022-12-18T06:08:13.041Z,17.20
2022-12-18T06:09:13.659Z,16.70
2022-12-18T06:10:14.252Z,18.20
2022-12-18T06:11:13.714Z,17.89
2022-12-18T06:12:13.980Z,17.5
2022-12-18T06:13:12.937Z,16.29
2022-12-18T06:14:14.137Z,16.89
2022-12-18T06:15:13.721Z,17.20
2022-12-18T06:16:13.801Z,17.89
2022-12-18T06:17:13.483Z,17.79
2022-12-18T06:18:13.195Z,15.89
2022-12-18T06:19:13.528Z,17.5
2022-12-18T06:21:13.963Z,19.5
2022-12-18T06:22:13.210Z,18.5
2022-12-18T06:23:13.302Z,19.5
2022-12-18T06:24:13.940Z,19.60
2022-12-18T06:25:13.765Z,19.20
2022-12-18T06:26:14.042Z,17.89
2022-12-18T06:27:14.023Z,18.70
2022-12-18T06:28:13.417Z,17.89
2022-12-18T06:29:13.575Z,19.70
2022-12-18T06:30:14.466Z,19
2022-12-18T06:31:13.348Z,19.10
2022-12-18T06:32:13.803Z,17.39
2022-12-18T06:33:14.132Z,17.5
2022-12-18T06:34:13.427Z,19.29
2022-12-18T06:35:14.045Z,18.39
2022-12-18T06:36:13.756Z,18.29
2022-12-18T06:37:13.948Z,16.70
2022-12-18T06:38:13.015Z,17.79
2022-12-18T06:39:14.135Z,18.79
2022-12-18T06:40:13.682Z,18.5
2022-12-18T06:41:13.112Z,18.29
2022-12-18T06:42:13.213Z,17.60
2022-12-18T06:43:13.517Z,17.5
2022-12-18T06:44:13.882Z,16.5
2022-12-18T06:45:13.299Z,20
2022-12-18T06:46:13.680Z,17.5
2022-12-18T06:47:13.991Z,18
2022-12-18T06:48:13.392Z,15.80
2022-12-18T06:49:13.646Z,18
2022-12-18T06:50:13.627Z,17.39
2022-12-18T06:51:13.955Z,16.5
2022-12-18T06:52:13.209Z,17.29
2022-12-18T06:53:13.493Z,16.5
2022-12-18T06:54:13.891Z,18.79
2022-12-18T06:55:13.749Z,16.29
2022-12-18T06:56:13.810Z,17.60
2022-12-18T06:57:13.784Z,17.20
2022-12-18T06:58:14.127Z,19.79
2022-12-18T06:59:13.401Z,17.79
2022-12-18T07:00:14.660Z,19.10
2022-12-18T07:01:13.958Z,18.60
2022-12-18T07:02:13.558Z,18
2022-12-18T07:03:13.888Z,19.20
2022-12-18T07:04:13.682Z,17.70
2022-12-18T07:05:13.470Z,19.79
2022-12-18T07:06:13.812Z,19.5
2022-12-18T07:07:13.155Z,19.39
2022-12-18T07:08:13.098Z,19.29
2022-12-18T07:09:13.352Z,17.20
2022-12-18T07:10:14.073Z,20.20
2022-12-18T07:11:13.195Z,22.79
2022-12-18T07:12:13.543Z,18.39
2022-12-18T07:13:13.935Z,20.39
2022-12-18T07:14:13.407Z,18.20
2022-12-18T07:15:13.971Z,21.79
2022-12-18T07:16:20.916Z,19.5
2022-12-18T07:17:14.069Z,20.10
2022-12-18T07:18:13.444Z,20
2022-12-18T07:19:13.970Z,19.60
2022-12-18T07:20:13.445Z,19.5
2022-12-18T07:21:13.925Z,18.60
2022-12-18T07:22:13.427Z,19.89
2022-12-18T07:23:13.818Z,20.89
2022-12-18T07:24:13.322Z,21.39
2022-12-18T07:25:14.089Z,21.60
2022-12-18T07:27:13.452Z,20.39
2022-12-18T07:28:17.331Z,23.5
2022-12-18T07:29:13.405Z,22.70
2022-12-18T07:30:14.063Z,22.10
2022-12-18T07:31:13.623Z,21.29
2022-12-18T07:32:13.618Z,21.89
2022-12-18T07:33:13.505Z,23.70
2022-12-18T07:34:14.094Z,24.10
2022-12-18T07:35:13.684Z,24.20
2022-12-18T07:36:13.698Z,22.89
2022-12-18T07:37:14.226Z,22.20
2022-12-18T07:38:13.928Z,23.5
2022-12-18T07:39:13.562Z,24.70
2022-12-18T07:40:14.165Z,25.29
2022-12-18T07:41:13.614Z,26.60
2022-12-18T07:42:13.877Z,26.20
2022-12-18T07:43:13.380Z,25.29
2022-12-18T07:44:14.114Z,26.79
2022-12-18T07:45:13.591Z,26.89
2022-12-18T07:47:13.664Z,27.29
2022-12-18T07:48:13.993Z,25.79
2022-12-18T07:49:13.431Z,25.29
2022-12-18T07:50:14.631Z,26.29
2022-12-18T07:51:14.114Z,23.5
2022-12-18T07:52:13.611Z,22.89
2022-12-18T07:53:13.756Z,22.10
2022-12-18T07:54:13.119Z,24.89
2022-12-18T07:55:13.659Z,24.79
2022-12-18T07:56:28.224Z,24.20
2022-12-18T07:57:27.325Z,22.5
2022-12-18T07:58:13.601Z,23.79
2022-12-18T07:59:13.805Z,25.20
2022-12-18T08:00:15.129Z,21.5
2022-12-18T08:01:14.206Z,24.89
2022-12-18T08:02:14.245Z,22.20
2022-12-18T08:03:14.344Z,23
2022-12-18T08:04:14.422Z,23.29
2022-12-18T08:05:14.487Z,25.79
2022-12-18T08:06:13.757Z,22.39
2022-12-18T08:07:13.744Z,24.89
2022-12-18T08:08:14.153Z,25.10
2022-12-18T08:09:13.833Z,25
2022-12-18T08:10:13.180Z,22.5
2022-12-18T08:11:13.603Z,23.20
2022-12-18T08:12:13.925Z,23.89
2022-12-18T08:13:13.630Z,25
2022-12-18T08:14:14.264Z,24.5
2022-12-18T08:15:13.865Z,22.60
2022-12-18T08:16:13.342Z,23.20
2022-12-18T08:17:14.111Z,23.5
2022-12-18T08:18:14.534Z,23.60
2022-12-18T08:19:14.212Z,24.39
2022-12-18T08:20:13.966Z,23.29
2022-12-18T08:21:13.816Z,25
2022-12-18T08:22:13.510Z,25.5
2022-12-18T08:23:14.156Z,25.29
2022-12-18T08:24:13.482Z,27
2022-12-18T08:25:14.355Z,27.29
2022-12-18T08:26:13.591Z,23
2022-12-18T08:27:28.887Z,23.20
2022-12-18T08:28:14.006Z,25.10
2022-12-18T08:29:17.324Z,25.89
2022-12-18T08:30:13.806Z,27.89
2022-12-18T08:31:13.627Z,25
2022-12-18T08:32:13.956Z,27.60
2022-12-18T08:33:13.581Z,24.89
2022-12-18T08:34:14.202Z,27.39
2022-12-18T08:36:14.256Z,25.5
2022-12-18T08:37:13.821Z,26.5
2022-12-18T08:38:13.397Z,27.89
2022-12-18T08:39:14.289Z,26
2022-12-18T08:40:13.951Z,28.5
2022-12-18T08:41:13.691Z,28
2022-12-18T08:42:14.170Z,26.39
2022-12-18T08:43:13.357Z,25.79
2022-12-18T08:44:14.124Z,27.89
2022-12-18T08:45:13.976Z,27.70
2022-12-18T08:46:13.730Z,27.10
2022-12-18T08:47:13.447Z,24.70
2022-12-18T08:48:17.824Z,27.5
2022-12-18T08:49:13.892Z,27
2022-12-18T08:50:14.308Z,26.70
2022-12-18T08:51:14.008Z,26.29
2022-12-18T08:52:14.210Z,25.20
2022-12-18T08:53:13.768Z,24.60
2022-12-18T08:54:13.456Z,25.79
2022-12-18T08:55:14.212Z,25.20
2022-12-18T08:56:14.220Z,27.29
2022-12-18T08:57:13.766Z,29
2022-12-18T08:58:13.464Z,27.70
2022-12-18T08:59:19.381Z,26.79
2022-12-18T09:00:14.680Z,26.5
2022-12-18T09:01:13.741Z,24.70
2022-12-18T09:02:13.263Z,24.79
2022-12-18T09:03:14.497Z,27
2022-12-18T09:04:14.302Z,25.29
2022-12-18T09:05:13.842Z,24.29
2022-12-18T09:06:13.916Z,23.79
2022-12-18T09:07:13.651Z,26.10
2022-12-18T09:08:13.220Z,24.39
2022-12-18T09:09:13.921Z,23.5
2022-12-18T09:10:13.868Z,28.20
2022-12-18T09:11:13.761Z,25.29
2022-12-18T09:12:14.281Z,24.79
2022-12-18T09:13:13.854Z,23.89
2022-12-18T09:14:13.364Z,23.5
2022-12-18T09:15:14.322Z,24
2022-12-18T09:16:13.715Z,26.20
2022-12-18T09:17:14.082Z,23.39
2022-12-18T09:18:13.790Z,25.60
2022-12-18T09:19:14.411Z,25.70
2022-12-18T09:20:14.270Z,25.20
2022-12-18T09:21:14.202Z,26.89
2022-12-18T09:22:13.718Z,25.29
2022-12-18T09:23:18.511Z,24.79
2022-12-18T09:24:14.124Z,26.39
2022-12-18T09:25:13.716Z,24.39
2022-12-18T09:26:13.292Z,26.5
2022-12-18T09:27:13.908Z,24.70
2022-12-18T09:28:13.912Z,25.79
2022-12-18T09:29:13.428Z,25.60
2022-12-18T09:30:14.665Z,25.39
2022-12-18T09:31:14.373Z,24.70
2022-12-18T09:32:18.970Z,27.5
2022-12-18T09:33:13.775Z,26.79
2022-12-18T09:34:14.312Z,27.89
2022-12-18T09:35:14.169Z,25.79
2022-12-18T09:36:13.483Z,24.20
2022-12-18T09:37:14.151Z,25.60
2022-12-18T09:38:13.667Z,23.70
2022-12-18T09:39:13.585Z,25.29
2022-12-18T09:40:13.968Z,26.70
2022-12-18T09:41:13.505Z,25.60
2022-12-18T09:42:14.138Z,25.79
2022-12-18T09:43:28.121Z,24.89
2022-12-18T09:44:13.752Z,27.60
2022-12-18T09:45:14.180Z,26.89
2022-12-18T09:46:13.899Z,25.5
2022-12-18T09:47:13.655Z,25.39
2022-12-18T09:48:13.532Z,25.20
2022-12-18T09:49:14.351Z,26.39
2022-12-18T09:50:17.283Z,26.29
2022-12-18T09:51:14.157Z,26.60
2022-12-18T09:52:13.751Z,25.5
2022-12-18T09:53:13.415Z,27.20
2022-12-18T09:54:13.835Z,23.89
2022-12-18T09:55:13.725Z,26.5
2022-12-18T09:56:13.584Z,24.60
2022-12-18T09:57:14.276Z,27
2022-12-18T09:58:14.114Z,25.20
2022-12-18T09:59:13.733Z,25.89
2022-12-18T10:00:14.158Z,25.5
2022-12-18T10:01:14.876Z,24.29
2022-12-18T10:02:14.570Z,25.10
2022-12-18T10:03:13.417Z,23.60
2022-12-18T10:04:14.778Z,25.89
2022-12-18T10:05:13.674Z,26.39
2022-12-18T10:06:14.241Z,27.5
2022-12-18T10:07:13.832Z,25.60
2022-12-18T10:08:13.085Z,24.20
2022-12-18T10:09:13.393Z,26.79
2022-12-18T10:10:13.994Z,26.29
2022-12-18T10:11:13.525Z,24.20
2022-12-18T10:12:14.286Z,26.79
2022-12-18T10:13:14.050Z,25.5
2022-12-18T10:14:13.551Z,26.10
2022-12-18T10:15:14.612Z,27.70
2022-12-18T10:16:14.422Z,25.29
2022-12-18T10:17:14.416Z,25.39
2022-12-18T10:18:17.410Z,24.20
2022-12-18T10:19:14.606Z,27
2022-12-18T10:20:13.786Z,25.60
2022-12-18T10:21:13.709Z,23.89
2022-12-18T10:22:13.161Z,24.10
2022-12-18T10:23:14.086Z,25.5
2022-12-18T10:24:13.989Z,22.79
2022-12-18T10:25:14.407Z,25.39
2022-12-18T10:26:13.801Z,24.79
2022-12-18T10:27:14.444Z,23.39
2022-12-18T10:28:14.139Z,22.5
2022-12-18T10:29:13.739Z,25.39
2022-12-18T10:30:14.692Z,23.5
2022-12-18T10:31:14.334Z,23.20
2022-12-18T10:32:14.225Z,23.79
2022-12-18T10:33:13.601Z,24.20
2022-12-18T10:34:13.241Z,23.70
2022-12-18T10:35:14.154Z,24.5
2022-12-18T10:36:13.419Z,23.79
2022-12-18T10:37:14.150Z,21.89
2022-12-18T10:38:13.652Z,23.70
2022-12-18T10:39:13.694Z,22.5
2022-12-18T10:40:19.851Z,23.5
2022-12-18T10:41:13.710Z,22.29
2022-12-18T10:42:13.759Z,24.5
2022-12-18T10:43:14.275Z,22.5
2022-12-18T10:44:14.176Z,23.70
2022-12-18T10:45:14.049Z,21.70
2022-12-18T10:46:13.761Z,21
2022-12-18T10:47:13.811Z,21.5
2022-12-18T10:48:14.122Z,22.79
2022-12-18T10:49:14.054Z,21.5
2022-12-18T10:50:13.770Z,23.10
2022-12-18T10:51:14.075Z,23.89
2022-12-18T10:52:13.275Z,21.60
2022-12-18T10:53:14.055Z,20.70
2022-12-18T10:54:13.789Z,21.70
2022-12-18T10:55:13.753Z,24.70
2022-12-18T10:56:13.903Z,23.79
2022-12-18T10:57:13.560Z,24.60
2022-12-18T10:58:14.401Z,23
2022-12-18T10:59:14.454Z,22.5
2022-12-18T11:00:14.913Z,22.39
2022-12-18T11:01:13.936Z,23.10
2022-12-18T11:02:13.968Z,24.60
2022-12-18T11:03:14.277Z,21.79
2022-12-18T11:04:14.099Z,22.70
2022-12-18T11:05:13.883Z,21.70
2022-12-18T11:06:13.656Z,21.29
2022-12-18T11:07:14.145Z,22
2022-12-18T11:08:13.782Z,20.5
2022-12-18T11:09:15.594Z,23.29
2022-12-18T11:10:14.083Z,20.5
2022-12-18T11:11:13.565Z,20
2022-12-18T11:12:14.363Z,21.39
2022-12-18T11:13:13.872Z,21.10
2022-12-18T11:14:13.102Z,20.70
2022-12-18T11:15:13.958Z,19.70
2022-12-18T11:16:13.511Z,21.89
2022-12-18T11:17:26.749Z,20.79
2022-12-18T11:18:13.795Z,22.20
2022-12-18T11:19:13.475Z,22.10
2022-12-18T11:20:14.091Z,20.79
2022-12-18T11:21:13.917Z,23.5
2022-12-18T11:22:13.497Z,22.20
2022-12-18T11:23:13.858Z,19.79
2022-12-18T11:24:13.764Z,21.70
2022-12-18T11:25:34.597Z,21.89
2022-12-18T11:26:13.983Z,21.5
2022-12-18T11:27:13.975Z,20
2022-12-18T11:28:13.799Z,20.29
2022-12-18T11:29:14.133Z,21.10
2022-12-18T11:30:13.836Z,21
2022-12-18T11:31:13.485Z,21.29
2022-12-18T11:32:14.064Z,22
2022-12-18T11:33:13.487Z,20.79
2022-12-18T11:34:29.246Z,20.89
2022-12-18T11:35:13.659Z,21
2022-12-18T11:36:13.134Z,21.5
2022-12-18T11:37:13.787Z,20.39
2022-12-18T11:38:13.669Z,18.70
2022-12-18T11:39:14.431Z,19.29
2022-12-18T11:40:13.886Z,21.60
2022-12-18T11:41:13.295Z,20.60
2022-12-18T11:42:13.761Z,19.39
2022-12-18T11:43:14.185Z,21.60
2022-12-18T11:44:14.051Z,19.79
2022-12-18T11:45:13.973Z,18.70
2022-12-18T11:46:19.144Z,20.60
2022-12-18T11:47:13.599Z,21
2022-12-18T11:48:18.985Z,20.10
2022-12-18T11:49:13.879Z,20.89
2022-12-18T11:50:13.503Z,20.20
2022-12-18T11:51:14.042Z,20.10
2022-12-18T11:52:18.464Z,21.60
2022-12-18T11:53:14.047Z,20.89
2022-12-18T11:54:13.532Z,21.89
2022-12-18T11:55:14.224Z,20.39
2022-12-18T11:56:13.875Z,22.60
2022-12-18T11:57:14.182Z,20.29
2022-12-18T11:58:14.091Z,22.70
2022-12-18T11:59:13.141Z,20.89
2022-12-18T12:00:19.373Z,21.70
2022-12-18T12:01:13.649Z,21
2022-12-18T12:02:13.579Z,21.70
2022-12-18T12:03:13.557Z,22
2022-12-18T12:04:13.525Z,21.60
2022-12-18T12:05:14.283Z,22.10
2022-12-18T12:06:13.614Z,21.89
2022-12-18T12:07:14.618Z,20.89
2022-12-18T12:08:12.751Z,25.10
2022-12-18T12:09:14.290Z,22.60
2022-12-18T12:10:13.857Z,21.60
2022-12-18T12:11:13.106Z,22.39
2022-12-18T12:12:13.553Z,22.89
2022-12-18T12:13:13.711Z,22.79
2022-12-18T12:14:13.913Z,22.29
2022-12-18T12:15:13.444Z,23.70
2022-12-18T12:16:13.870Z,22.10
2022-12-18T12:17:13.606Z,24.29
2022-12-18T12:18:13.971Z,23.29
2022-12-18T12:19:13.412Z,22.39
2022-12-18T12:20:14.187Z,23.10
2022-12-18T12:21:14.721Z,22.10
2022-12-18T12:22:14.116Z,24.5
2022-12-18T12:23:13.675Z,22.39
2022-12-18T12:24:14.436Z,21.79
2022-12-18T12:25:14.171Z,22.39
2022-12-18T12:26:32.607Z,21.60
2022-12-18T12:27:13.574Z,22.60
2022-12-18T12:28:13.500Z,21.39
2022-12-18T12:29:19.419Z,22.60
2022-12-18T12:30:32.416Z,23.20
2022-12-18T12:31:13.800Z,22.79
2022-12-18T12:32:13.397Z,22.60
2022-12-18T12:33:14.265Z,24.29
2022-12-18T12:34:13.522Z,24.60
2022-12-18T12:35:14.574Z,23.20
2022-12-18T12:36:13.802Z,24
2022-12-18T12:37:13.314Z,23.10
2022-12-18T12:38:13.834Z,27.60
2022-12-18T12:39:13.551Z,24.39
2022-12-18T12:40:48.452Z,24.89
2022-12-18T12:41:13.527Z,22.5
2022-12-18T12:42:14.241Z,26
2022-12-18T12:43:13.732Z,23.39
2022-12-18T12:44:13.570Z,22
2022-12-18T12:45:14.422Z,23.20
2022-12-18T12:46:14.347Z,23.79
2022-12-18T12:47:13.262Z,23.39
2022-12-18T12:48:14.289Z,24
2022-12-18T12:49:13.536Z,25.39
2022-12-18T12:50:14.294Z,24.29
2022-12-18T12:51:14.201Z,21.60
2022-12-18T12:52:13.726Z,23.5
2022-12-18T12:53:13.114Z,25.20
2022-12-18T12:55:15.007Z,26.60
2022-12-18T12:56:13.596Z,24.10
2022-12-18T12:57:13.229Z,23.89
2022-12-18T12:58:14.269Z,26.39
2022-12-18T12:59:14.234Z,24.29
2022-12-18T13:00:14.776Z,23.89
2022-12-18T13:01:17.278Z,24.39
2022-12-18T13:02:14.103Z,23.29
2022-12-18T13:03:14.141Z,23.39
2022-12-18T13:04:14.018Z,24.10
2022-12-18T13:05:13.862Z,25.29
2022-12-18T13:06:13.252Z,23.70
2022-12-18T13:07:13.191Z,23.60
2022-12-18T13:08:14.052Z,24.20
2022-12-18T13:09:13.811Z,24.70
2022-12-18T13:10:13.541Z,27.5
2022-12-18T13:11:14.179Z,23.29
2022-12-18T13:12:13.974Z,24.70
2022-12-18T13:13:16.572Z,25.79
2022-12-18T13:14:14.264Z,24.20
2022-12-18T13:15:14.514Z,22.60
2022-12-18T13:16:13.356Z,23.60
2022-12-18T13:17:13.426Z,24.70
2022-12-18T13:18:13.459Z,26.39
2022-12-18T13:19:13.880Z,23.39
2022-12-18T13:20:14.037Z,23.79